Green Corner, Vermont
Current Conditions -  °F | °C
As of 11:55 AM on Thursday 23 Oct 2014 (Local Time) from KFSO Reporting Station
Light Rain Light Rain  
Wind Chill: 38°   Ceiling: 6000
Heat Index: 43°   Visibility: 10mi
Dew Point: 40°   Wind: 8mph
Humidity: 90%   Direction: 350°N
Pressure: 29.98"   Gusts: 16mph
Location:  44.9002°N, 73.1493°W
Report Text: KFSO 231555Z AUTO 35007G14KT 10SM -RA OVC060 06/05 A2998 RMK AO2 T00620046
Loading
Personal Weather Stations






























Interactive Weather Map
Tropical Storm Tracking
New forecast layout! Learn more

10-Day Weather Forecast

Advertisements
Track Severe Weather on mobile